Time;durP1;ratioP1;P1;durP2;ratioP2;P2;SDS_P1;SDS_P2;PMS_P1;PMS_P2;Temp;Humidity;BMP_temperature;BMP_pressure;BME280_temperature;BME280_humidity;BME280_pressure;Samples;Min_cycle;Max_cycle;Signal;HPM_P1;HPM_P2
2022/03/25 00:00:30;;;;;;;;;;;;;;;10.48;59.18;101177.13;5075536;28;20358;-66
2022/03/25 00:03:14;;;;;;;;;;;;;;;10.47;59.60;101175.34;5074841;28;20012;-65
2022/03/25 00:05:58;;;;;;;;;;;;;;;10.47;59.34;101172.78;5075221;28;19927;-65
2022/03/25 00:08:42;;;;;;;;;;;;;;;10.48;59.41;101179.72;5074156;28;20299;-65
2022/03/25 00:11:26;;;;;;;;;;;;;;;10.47;59.63;101172.78;5074552;28;19928;-64
2022/03/25 00:14:11;;;;;;;;;;;;;;;10.47;59.67;101176.22;5075231;28;19975;-65
2022/03/25 00:16:55;;;;;;;;;;;;;;;10.47;59.32;101177.94;5074463;28;19927;-65
2022/03/25 00:19:39;;;;;;;;;;;;;;;10.45;59.65;101177.88;5075341;28;20410;-65
2022/03/25 00:22:22;;;;;;;;;;;;;;;10.45;59.72;101177.88;5075300;28;20288;-65
2022/03/25 00:25:08;;;;;;;;;;;;;;;10.45;59.44;101175.28;5073991;28;20319;-65
2022/03/25 00:27:52;;;;;;;;;;;;;;;10.45;59.74;101174.41;5074817;28;20457;-65
2022/03/25 00:30:36;;;;;;;;;;;;;;;10.44;59.74;101173.53;5074153;28;19932;-65
2022/03/25 00:33:20;;;;;;;;;;;;;;;10.44;59.85;101177.84;5074514;28;19928;-64
2022/03/25 00:36:04;;;;;;;;;;;;;;;10.43;59.59;101176.94;5074497;28;19928;-65
2022/03/25 00:38:48;;;;;;;;;;;;;;;10.42;59.83;101175.22;5073845;28;20279;-64
2022/03/25 00:41:33;;;;;;;;;;;;;;;10.42;59.49;101174.31;5074413;28;19927;-65
2022/03/25 00:44:18;;;;;;;;;;;;;;;10.41;59.83;101165.66;5074350;28;19927;-65
2022/03/25 00:47:02;;;;;;;;;;;;;;;10.41;59.67;101168.25;5073799;28;20011;-65
2022/03/25 00:49:46;;;;;;;;;;;;;;;10.40;59.92;101166.50;5073663;28;19935;-65
2022/03/25 00:52:30;;;;;;;;;;;;;;;10.40;59.85;101168.19;5074207;28;19927;-65
2022/03/25 00:55:14;;;;;;;;;;;;;;;10.38;59.60;101165.56;5073934;28;19927;-65
2022/03/25 00:57:58;;;;;;;;;;;;;;;10.39;59.60;101159.56;5073124;28;20341;-64
2022/03/25 01:00:42;;;;;;;;;;;;;;;10.37;59.64;101155.97;5074112;28;20347;-64
2022/03/25 01:03:26;;;;;;;;;;;;;;;10.36;60.00;101162.84;5072853;28;20291;-65
2022/03/25 01:06:10;;;;;;;;;;;;;;;10.36;59.95;101157.69;5074186;28;20338;-65
2022/03/25 01:08:54;;;;;;;;;;;;;;;10.35;59.96;101148.13;5074073;28;20372;-65
2022/03/25 01:11:39;;;;;;;;;;;;;;;10.35;59.66;101155.91;5072744;28;19987;-65
2022/03/25 01:14:23;;;;;;;;;;;;;;;10.35;59.94;101160.22;5074007;28;19959;-65
2022/03/25 01:17:07;;;;;;;;;;;;;;;10.34;59.79;101155.88;5074140;28;19927;-65
2022/03/25 01:19:50;;;;;;;;;;;;;;;10.32;59.96;101155.84;5073985;28;19928;-64
2022/03/25 01:22:34;;;;;;;;;;;;;;;10.33;60.09;101165.38;5074091;28;20053;-65
2022/03/25 01:25:19;;;;;;;;;;;;;;;10.32;59.77;101158.41;5087375;28;19928;-65
2022/03/25 01:28:02;;;;;;;;;;;;;;;10.31;59.57;101156.66;5073757;28;19978;-65
2022/03/25 01:30:47;;;;;;;;;;;;;;;10.32;59.70;101152.34;5073258;28;19954;-64
2022/03/25 01:33:30;;;;;;;;;;;;;;;10.31;59.92;101156.66;5073128;28;19971;-65
2022/03/25 01:36:15;;;;;;;;;;;;;;;10.30;59.91;101149.72;5072939;28;19931;-64
2022/03/25 01:38:59;;;;;;;;;;;;;;;10.30;59.60;101141.94;5074108;28;19928;-65
2022/03/25 01:41:47;;;;;;;;;;;;;;;10.29;59.82;101142.75;5073526;28;19927;-65
2022/03/25 01:44:31;;;;;;;;;;;;;;;10.28;59.84;101140.09;5072834;28;20303;-65
2022/03/25 01:47:15;;;;;;;;;;;;;;;10.26;59.89;101137.47;5073285;28;20307;-65
2022/03/25 01:50:00;;;;;;;;;;;;;;;10.27;59.82;101133.19;5072892;28;20322;-64
2022/03/25 01:52:45;;;;;;;;;;;;;;;10.25;59.81;101140.00;5072789;28;19970;-64
2022/03/25 01:55:35;;;;;;;;;;;;;;;10.25;59.79;101134.84;5072985;28;19947;-66
2022/03/25 01:58:20;;;;;;;;;;;;;;;10.25;59.95;101134.84;5073701;28;20013;-64
2022/03/25 02:01:04;;;;;;;;;;;;;;;10.24;60.01;101136.53;5073562;28;19928;-64
2022/03/25 02:03:48;;;;;;;;;;;;;;;10.23;59.89;101129.59;5073922;28;19927;-64
2022/03/25 02:06:32;;;;;;;;;;;;;;;10.23;60.07;101132.16;5073015;28;20033;-64
2022/03/25 02:09:16;;;;;;;;;;;;;;;10.23;60.00;101139.06;5073492;28;19931;-65
2022/03/25 02:12:00;;;;;;;;;;;;;;;10.21;60.09;101129.53;5072461;28;19974;-64
2022/03/25 02:14:44;;;;;;;;;;;;;;;10.20;60.00;101132.06;5073645;28;20391;-65
2022/03/25 02:17:29;;;;;;;;;;;;;;;10.20;60.14;101132.06;5073827;28;19927;-65
2022/03/25 02:20:14;;;;;;;;;;;;;;;10.19;59.84;101133.78;5073645;28;20017;-64
2022/03/25 02:22:58;;;;;;;;;;;;;;;10.19;60.08;101135.50;5073414;28;19944;-65
2022/03/25 02:25:42;;;;;;;;;;;;;;;10.17;59.75;101130.25;5076462;28;19943;-65
2022/03/25 02:28:26;;;;;;;;;;;;;;;10.17;60.07;101134.56;5076547;28;19927;-65
2022/03/25 02:31:10;;;;;;;;;;;;;;;10.17;60.13;101131.97;5077389;28;19966;-65
2022/03/25 02:33:56;;;;;;;;;;;;;;;10.15;60.17;101133.63;5077258;28;19927;-64
2022/03/25 02:36:41;;;;;;;;;;;;;;;10.15;59.97;101131.03;5076243;28;19943;-64
2022/03/25 02:39:27;;;;;;;;;;;;;;;10.14;60.10;101137.03;5075875;28;20433;-64
2022/03/25 02:42:11;;;;;;;;;;;;;;;10.12;59.71;101131.78;5076567;28;20058;-64
2022/03/25 02:44:55;;;;;;;;;;;;;;;10.12;60.03;101134.38;5076388;28;19927;-65
2022/03/25 02:47:39;;;;;;;;;;;;;;;10.12;60.08;101143.88;5076307;28;19951;-65
2022/03/25 02:50:23;;;;;;;;;;;;;;;10.09;59.99;101142.06;5076974;28;20386;-64
2022/03/25 02:53:07;;;;;;;;;;;;;;;10.09;60.01;101142.06;5077082;28;20429;-65
2022/03/25 02:55:51;;;;;;;;;;;;;;;10.09;60.10;101139.47;5077029;28;20394;-64
2022/03/25 02:58:35;;;;;;;;;;;;;;;10.08;60.06;101135.13;5076204;28;20342;-64
2022/03/25 03:01:19;;;;;;;;;;;;;;;10.08;59.70;101142.91;5075668;28;19927;-64
2022/03/25 03:04:03;;;;;;;;;;;;;;;10.07;59.95;101133.34;5075495;28;19928;-64
2022/03/25 03:06:47;;;;;;;;;;;;;;;10.06;59.84;101137.63;5075513;28;19927;-65
2022/03/25 03:09:31;;;;;;;;;;;;;;;10.05;59.63;101135.88;5076129;28;19974;-65
2022/03/25 03:12:15;;;;;;;;;;;;;;;10.04;59.84;101141.88;5076088;28;19931;-64
2022/03/25 03:15:00;;;;;;;;;;;;;;;10.05;60.04;101147.97;5075647;28;20283;-65
2022/03/25 03:17:45;;;;;;;;;;;;;;;10.05;59.76;101142.78;5076646;28;20022;-65
2022/03/25 03:20:29;;;;;;;;;;;;;;;10.04;60.02;101149.66;5076023;28;19928;-65
2022/03/25 03:23:13;;;;;;;;;;;;;;;10.04;60.14;101157.41;5076069;28;20058;-64
2022/03/25 03:25:57;;;;;;;;;;;;;;;10.02;59.77;101153.91;5076096;28;19995;-64
2022/03/25 03:28:41;;;;;;;;;;;;;;;10.02;59.92;101148.75;5089456;28;19927;-64
2022/03/25 03:31:25;;;;;;;;;;;;;;;10.02;60.14;101145.25;5076334;28;19927;-65
2022/03/25 03:34:08;;;;;;;;;;;;;;;10.01;60.02;101146.97;5074823;28;19935;-64
2022/03/25 03:36:52;;;;;;;;;;;;;;;10.00;60.15;101142.63;5075510;28;20326;-65
2022/03/25 03:39:36;;;;;;;;;;;;;;;10.00;60.07;101144.31;5075740;28;19927;-64
2022/03/25 03:42:20;;;;;;;;;;;;;;;10.01;60.06;101143.50;5075064;28;20020;-65
2022/03/25 03:45:06;;;;;;;;;;;;;;;9.98;60.08;101146.84;5075198;28;20020;-64
2022/03/25 03:47:51;;;;;;;;;;;;;;;9.97;60.14;101144.19;5074471;28;19926;-65
2022/03/25 03:50:35;;;;;;;;;;;;;;;9.96;60.21;101152.81;5074735;28;20070;-65
2022/03/25 03:53:19;;;;;;;;;;;;;;;9.95;59.97;101151.91;5074596;28;19927;-65
2022/03/25 03:56:03;;;;;;;;;;;;;;;9.94;59.95;101147.56;5075789;28;20288;-65
2022/03/25 03:58:47;;;;;;;;;;;;;;;9.93;59.61;101150.97;5075461;28;19966;-64
2022/03/25 04:01:31;;;;;;;;;;;;;;;9.92;59.72;101149.22;5073702;28;19974;-65
2022/03/25 04:04:16;;;;;;;;;;;;;;;9.91;59.95;101150.03;5074323;28;19939;-64
2022/03/25 04:07:00;;;;;;;;;;;;;;;9.89;59.90;101147.41;5075362;28;20386;-64
2022/03/25 04:09:45;;;;;;;;;;;;;;;9.89;59.67;101150.00;5074642;28;19927;-65
2022/03/25 04:12:29;;;;;;;;;;;;;;;9.88;59.87;101156.00;5075271;28;19990;-66
2022/03/25 04:15:13;;;;;;;;;;;;;;;9.87;59.90;101150.78;5075417;28;20325;-65
2022/03/25 04:17:58;;;;;;;;;;;;;;;9.87;59.73;101150.78;5074547;28;19927;-65
2022/03/25 04:20:41;;;;;;;;;;;;;;;9.86;60.06;101155.06;5074055;28;20019;-64
2022/03/25 04:23:25;;;;;;;;;;;;;;;9.86;59.89;101160.22;5075359;28;19970;-65
2022/03/25 04:26:10;;;;;;;;;;;;;;;9.84;59.95;101159.28;5074841;28;19927;-65
2022/03/25 04:28:54;;;;;;;;;;;;;;;9.84;59.72;101155.84;5073913;28;19970;-65
2022/03/25 04:31:38;;;;;;;;;;;;;;;9.82;59.66;101160.06;5074936;28;19973;-64
2022/03/25 04:34:22;;;;;;;;;;;;;;;9.81;59.97;101161.75;5074242;28;19947;-65
2022/03/25 04:37:07;;;;;;;;;;;;;;;9.81;59.60;101158.31;5074001;28;19978;-65
2022/03/25 04:39:50;;;;;;;;;;;;;;;9.81;59.89;101160.91;5074430;28;20397;-65
2022/03/25 04:42:34;;;;;;;;;;;;;;;9.80;59.66;101164.31;5074255;28;19927;-64
2022/03/25 04:45:19;;;;;;;;;;;;;;;9.79;60.05;101168.63;5073812;28;20283;-65
2022/03/25 04:48:04;;;;;;;;;;;;;;;9.78;59.60;101166.84;5073546;28;19974;-64
2022/03/25 04:50:47;;;;;;;;;;;;;;;9.78;59.97;101163.38;5074664;28;20394;-64
2022/03/25 04:53:32;;;;;;;;;;;;;;;9.77;59.59;101169.38;5073913;28;20024;-65
2022/03/25 04:56:16;;;;;;;;;;;;;;;9.75;59.92;101167.59;5073496;28;20356;-64
2022/03/25 04:59:00;;;;;;;;;;;;;;;9.74;60.09;101173.59;5074300;28;19927;-65
2022/03/25 05:01:44;;;;;;;;;;;;;;;9.73;59.60;101171.84;5073228;28;19927;-65
2022/03/25 05:04:28;;;;;;;;;;;;;;;9.74;59.94;101175.31;5073437;28;20429;-65
2022/03/25 05:07:13;;;;;;;;;;;;;;;9.73;59.97;101168.38;5073006;28;19966;-64
2022/03/25 05:09:58;;;;;;;;;;;;;;;9.72;59.56;101176.97;5074417;28;20064;-65
2022/03/25 05:12:43;;;;;;;;;;;;;;;9.72;59.66;101169.19;5087950;28;19928;-65
2022/03/25 05:15:27;;;;;;;;;;;;;;;9.71;59.67;101170.03;5073493;28;19928;-65
2022/03/25 05:18:11;;;;;;;;;;;;;;;9.70;59.85;101169.16;5074348;28;19927;-65
2022/03/25 05:20:55;;;;;;;;;;;;;;;9.69;59.93;101172.56;5073207;28;19935;-65
2022/03/25 05:23:39;;;;;;;;;;;;;;;9.68;59.86;101170.81;5073786;28;20287;-65
2022/03/25 05:26:22;;;;;;;;;;;;;;;9.67;59.49;101169.03;5072862;28;20345;-65
2022/03/25 05:29:06;;;;;;;;;;;;;;;9.67;59.59;101175.91;5072712;28;20362;-65
2022/03/25 05:31:50;;;;;;;;;;;;;;;9.66;59.67;101180.22;5074059;28;20300;-65
2022/03/25 05:34:34;;;;;;;;;;;;;;;9.66;59.74;101182.81;5072989;28;19927;-65
2022/03/25 05:37:21;;;;;;;;;;;;;;;9.66;59.87;101181.91;5073342;28;19974;-65
2022/03/25 05:40:06;;;;;;;;;;;;;;;9.66;59.64;101187.06;5073046;28;19935;-65
2022/03/25 05:42:50;;;;;;;;;;;;;;;9.65;59.86;101187.94;5072786;28;20375;-65
2022/03/25 05:45:35;;;;;;;;;;;;;;;9.64;59.51;101189.63;5073604;28;20068;-65
2022/03/25 05:48:19;;;;;;;;;;;;;;;9.63;59.53;101184.41;5072764;28;19997;-64
2022/03/25 05:51:03;;;;;;;;;;;;;;;9.63;59.82;101194.75;5073249;28;19927;-65
2022/03/25 05:53:47;;;;;;;;;;;;;;;9.63;59.80;101192.16;5072916;28;19943;-65
2022/03/25 05:56:31;;;;;;;;;;;;;;;9.60;59.76;101190.31;5073639;28;20406;-64
2022/03/25 05:59:15;;;;;;;;;;;;;;;9.60;59.89;101183.44;5075877;28;19947;-64
2022/03/25 06:01:59;;;;;;;;;;;;;;;9.59;59.71;101194.63;5077128;28;20390;-64
2022/03/25 06:04:44;;;;;;;;;;;;;;;9.60;59.69;101198.97;5076894;28;19927;-65
2022/03/25 06:07:34;;;;;;;;;;;;;;;9.58;59.94;101195.44;5076425;28;19928;-64
2022/03/25 06:10:19;;;;;;;;;;;;;;;9.59;59.87;101204.09;5077855;28;20342;-64
2022/03/25 06:13:04;;;;;;;;;;;;;;;9.57;59.93;101206.63;5077394;28;19966;-64
2022/03/25 06:15:48;;;;;;;;;;;;;;;9.56;59.89;101191.91;5077245;28;19927;-64
2022/03/25 06:18:32;;;;;;;;;;;;;;;9.56;59.73;101199.69;5077006;28;19927;-65
2022/03/25 06:21:17;;;;;;;;;;;;;;;9.55;59.65;101207.41;5077643;28;19974;-64
2022/03/25 06:24:01;;;;;;;;;;;;;;;9.54;59.76;101206.50;5075931;28;19927;-65
2022/03/25 06:26:45;;;;;;;;;;;;;;;9.54;59.76;101203.91;5075974;28;20041;-64
2022/03/25 06:29:29;;;;;;;;;;;;;;;9.53;59.67;101209.03;5076676;28;19929;-65
2022/03/25 06:32:13;;;;;;;;;;;;;;;9.53;59.73;101212.50;5077066;28;19928;-64
2022/03/25 06:34:57;;;;;;;;;;;;;;;9.52;59.82;101202.97;5077427;28;19974;-65
2022/03/25 06:37:41;;;;;;;;;;;;;;;9.51;59.53;101211.53;5076355;28;19927;-64
2022/03/25 06:40:25;;;;;;;;;;;;;;;9.52;59.84;101212.44;5076276;28;19928;-65
2022/03/25 06:43:09;;;;;;;;;;;;;;;9.51;59.75;101216.72;5076157;28;20015;-64
2022/03/25 06:45:53;;;;;;;;;;;;;;;9.50;60.10;101208.91;5075633;28;19970;-64
2022/03/25 06:48:37;;;;;;;;;;;;;;;9.50;59.83;101212.38;5076884;28;19926;-64
2022/03/25 06:51:21;;;;;;;;;;;;;;;9.50;59.70;101209.78;5076733;28;19927;-65
2022/03/25 06:54:05;;;;;;;;;;;;;;;9.50;60.07;101216.69;5076300;28;20005;-64
2022/03/25 06:56:49;;;;;;;;;;;;;;;9.50;59.80;101219.25;5076921;28;19928;-64
2022/03/25 06:59:33;;;;;;;;;;;;;;;9.50;59.79;101219.25;5076318;28;19928;-65
2022/03/25 07:02:17;;;;;;;;;;;;;;;9.50;60.14;101217.53;5076146;28;19970;-64
2022/03/25 07:05:02;;;;;;;;;;;;;;;9.49;59.88;101223.56;5075375;28;20337;-65
2022/03/25 07:07:47;;;;;;;;;;;;;;;9.48;59.83;101213.13;5075511;28;19927;-64
2022/03/25 07:10:31;;;;;;;;;;;;;;;9.48;60.01;101220.91;5075505;28;20015;-64
2022/03/25 07:13:14;;;;;;;;;;;;;;;9.47;59.88;101217.44;5076630;28;20395;-64
2022/03/25 07:15:58;;;;;;;;;;;;;;;9.47;60.07;101216.56;5075869;28;20510;-65
2022/03/25 07:18:42;;;;;;;;;;;;;;;9.47;59.90;101221.72;5076056;28;20129;-64
2022/03/25 07:21:26;;;;;;;;;;;;;;;9.45;60.13;101222.53;5075761;28;20405;-64
2022/03/25 07:24:11;;;;;;;;;;;;;;;9.45;59.81;101219.97;5076507;28;19973;-64
2022/03/25 07:26:55;;;;;;;;;;;;;;;9.46;59.96;101218.28;5074959;28;19966;-65
2022/03/25 07:29:39;;;;;;;;;;;;;;;9.46;59.99;101223.44;5075574;28;20438;-65
2022/03/25 07:32:23;;;;;;;;;;;;;;;9.45;60.27;101235.47;5075829;28;20390;-64
2022/03/25 07:35:08;;;;;;;;;;;;;;;9.47;60.21;101225.22;5075061;28;19928;-65
2022/03/25 07:37:51;;;;;;;;;;;;;;;9.47;60.00;101232.97;5075283;28;20276;-64
2022/03/25 07:40:35;;;;;;;;;;;;;;;9.47;60.13;101238.16;5075371;28;20011;-64
2022/03/25 07:43:19;;;;;;;;;;;;;;;9.48;60.27;101245.09;5075379;28;20337;-65
2022/03/25 07:46:03;;;;;;;;;;;;;;;9.48;60.20;101245.09;5074844;28;19975;-65
2022/03/25 07:48:47;;;;;;;;;;;;;;;9.49;60.13;101245.97;5075968;28;20299;-64
2022/03/25 07:51:31;;;;;;;;;;;;;;;9.50;60.26;101245.13;5075992;28;19927;-64
2022/03/25 07:54:15;;;;;;;;;;;;;;;9.51;60.32;101252.09;5075222;28;19990;-64
2022/03/25 07:56:58;;;;;;;;;;;;;;;9.50;60.24;101255.50;5074476;28;20300;-64
2022/03/25 07:59:43;;;;;;;;;;;;;;;9.48;60.16;101254.53;5075935;28;19927;-64
2022/03/25 08:02:27;;;;;;;;;;;;;;;9.48;60.24;101257.13;5074248;28;19928;-64
2022/03/25 08:05:11;;;;;;;;;;;;;;;9.48;60.28;101257.13;5074451;28;19966;-64
2022/03/25 08:07:55;;;;;;;;;;;;;;;9.48;60.33;101260.63;5074751;28;20012;-64
2022/03/25 08:10:39;;;;;;;;;;;;;;;9.48;60.43;101257.13;5074445;28;20393;-64
2022/03/25 08:13:25;;;;;;;;;;;;;;;9.49;60.35;101261.50;5074716;28;19967;-64
2022/03/25 08:16:09;;;;;;;;;;;;;;;9.50;60.66;101268.44;5074479;28;19928;-64
2022/03/25 08:18:53;;;;;;;;;;;;;;;9.48;60.71;101273.56;5074100;28;19928;-64
2022/03/25 08:21:37;;;;;;;;;;;;;;;9.48;60.69;101267.47;5074845;28;19974;-64
2022/03/25 08:30:33;;;;;;;;;;;;;;;9.51;60.69;101275.38;5074894;28;19978;-64
2022/03/25 08:33:18;;;;;;;;;;;;;;;9.51;60.47;101278.84;5073954;28;20017;-64
2022/03/25 08:36:02;;;;;;;;;;;;;;;9.52;60.79;101278.00;5074570;28;19936;-63
2022/03/25 08:38:46;;;;;;;;;;;;;;;9.53;60.46;101276.31;5074655;28;19947;-64
2022/03/25 08:41:30;;;;;;;;;;;;;;;9.54;60.65;101272.91;5074011;28;19929;-64
2022/03/25 08:44:14;;;;;;;;;;;;;;;9.54;60.74;101273.78;5074132;28;19969;-65
2022/03/25 08:46:58;;;;;;;;;;;;;;;9.56;60.99;101282.50;5074573;28;19927;-64
2022/03/25 08:49:42;;;;;;;;;;;;;;;9.58;60.61;101286.03;5073832;28;19927;-64
2022/03/25 08:52:26;;;;;;;;;;;;;;;9.60;60.75;101280.91;5074238;28;20319;-64
2022/03/25 08:55:10;;;;;;;;;;;;;;;9.62;60.79;101283.56;5073560;28;19966;-64
2022/03/25 08:57:54;;;;;;;;;;;;;;;9.63;60.68;101282.75;5074627;28;19987;-64
2022/03/25 09:00:38;;;;;;;;;;;;;;;9.65;60.84;101292.34;5074185;28;19927;-64
2022/03/25 09:03:23;;;;;;;;;;;;;;;9.67;60.82;101287.22;5073949;28;20062;-64
2022/03/25 09:06:07;;;;;;;;;;;;;;;9.67;60.86;101285.53;5073982;28;20019;-64
2022/03/25 09:08:51;;;;;;;;;;;;;;;9.69;60.98;101289.06;5073387;28;19966;-64
2022/03/25 09:11:36;;;;;;;;;;;;;;;9.71;60.83;101287.41;5073267;28;19928;-64
2022/03/25 09:14:20;;;;;;;;;;;;;;;9.72;60.84;101284.00;5073503;28;20391;-64
2022/03/25 09:17:04;;;;;;;;;;;;;;;9.73;60.93;101288.34;5074637;28;20444;-64
2022/03/25 09:19:48;;;;;;;;;;;;;;;9.77;61.07;101285.88;5073874;28;20054;-64
2022/03/25 09:22:33;;;;;;;;;;;;;;;9.78;60.88;101287.63;5074039;28;19927;-64
2022/03/25 09:25:17;;;;;;;;;;;;;;;9.80;61.04;101289.47;5073995;28;19927;-64
2022/03/25 09:28:01;;;;;;;;;;;;;;;9.82;61.11;101302.47;5073991;28;19973;-64
2022/03/25 09:30:45;;;;;;;;;;;;;;;9.83;61.22;101293.88;5074236;28;19943;-63
2022/03/25 09:33:29;;;;;;;;;;;;;;;9.84;61.02;101299.13;5073314;28;19943;-64
2022/03/25 09:36:13;;;;;;;;;;;;;;;9.86;61.21;101297.47;5073292;28;19990;-64
2022/03/25 09:38:57;;;;;;;;;;;;;;;9.88;61.20;101295.84;5073808;28;20312;-64
2022/03/25 09:41:41;;;;;;;;;;;;;;;9.89;61.19;101295.00;5074180;28;19974;-64
2022/03/25 09:44:25;;;;;;;;;;;;;;;9.90;61.30;101295.88;5073863;28;19927;-64
2022/03/25 09:47:14;;;;;;;;;;;;;;;9.93;61.34;101292.53;5072315;28;19975;-64
2022/03/25 09:49:59;;;;;;;;;;;;;;;9.95;61.26;101290.91;5073062;28;19974;-64
2022/03/25 09:52:44;;;;;;;;;;;;;;;9.96;61.14;101290.94;5073263;28;19973;-64
2022/03/25 09:55:28;;;;;;;;;;;;;;;9.98;61.38;101298.75;5074100;28;19928;-64
2022/03/25 09:58:18;;;;;;;;;;;;;;;9.98;61.28;101294.47;5073103;28;19927;-63
2022/03/25 10:01:02;;;;;;;;;;;;;;;9.99;61.04;101298.84;5073097;28;19974;-64
2022/03/25 10:03:46;;;;;;;;;;;;;;;10.00;61.32;101298.03;5073589;28;19931;-64
2022/03/25 10:06:30;;;;;;;;;;;;;;;10.02;61.08;101298.97;5073338;28;20394;-64
2022/03/25 10:09:20;;;;;;;;;;;;;;;10.03;60.96;101303.31;5074405;28;19966;-64
2022/03/25 10:12:23;;;;;;;;;;;;;;;10.06;60.98;101303.41;5073336;28;19967;-63
2022/03/25 10:15:25;;;;;;;;;;;;;;;10.06;61.11;101303.41;5073357;28;20282;-64
2022/03/25 10:18:09;;;;;;;;;;;;;;;10.07;61.19;101309.50;5086766;28;19944;-64
2022/03/25 10:20:52;;;;;;;;;;;;;;;10.08;61.34;101306.09;5072577;28;19935;-63
2022/03/25 10:23:43;;;;;;;;;;;;;;;10.09;61.14;101302.66;5072270;28;19932;-64
2022/03/25 10:26:36;;;;;;;;;;;;;;;10.10;61.41;101304.44;5073028;28;19928;-64
2022/03/25 10:29:22;;;;;;;;;;;;;;;10.12;61.22;101301.91;5072996;28;19928;-64
2022/03/25 10:32:10;;;;;;;;;;;;;;;10.13;61.39;101312.31;5072149;28;20292;-64
2022/03/25 10:35:06;;;;;;;;;;;;;;;10.14;61.34;101305.44;5073020;28;19927;-63
2022/03/25 10:37:57;;;;;;;;;;;;;;;10.15;61.20;101304.59;5072267;28;19928;-64
2022/03/25 10:41:01;;;;;;;;;;;;;;;10.17;61.10;101298.66;5072365;28;19927;-64
2022/03/25 10:43:48;;;;;;;;;;;;;;;10.18;61.08;101302.13;5073191;28;19927;-63
2022/03/25 10:46:33;;;;;;;;;;;;;;;10.18;61.27;101304.72;5074358;28;19973;-64
2022/03/25 10:49:18;;;;;;;;;;;;;;;10.19;61.21;101299.59;5076894;28;20299;-64
2022/03/25 10:52:04;;;;;;;;;;;;;;;10.20;61.36;101298.78;5076864;28;19974;-64
2022/03/25 10:54:48;;;;;;;;;;;;;;;10.21;61.19;101300.53;5075612;28;19927;-64
2022/03/25 10:57:46;;;;;;;;;;;;;;;10.24;61.42;101294.56;5076366;28;20098;-65
2022/03/25 11:00:30;;;;;;;;;;;;;;;10.25;61.30;101293.75;5076112;28;20295;-64
2022/03/25 11:03:14;;;;;;;;;;;;;;;10.25;61.20;101291.16;5076742;28;20256;-65
2022/03/25 11:05:58;;;;;;;;;;;;;;;10.26;61.46;101294.66;5075219;28;20421;-64
2022/03/25 11:08:43;;;;;;;;;;;;;;;10.28;61.06;101295.56;5075755;28;19943;-64
2022/03/25 11:11:27;;;;;;;;;;;;;;;10.28;61.43;101299.06;5076517;28;20007;-64
2022/03/25 11:14:11;;;;;;;;;;;;;;;10.29;61.42;101300.81;5074876;28;19934;-65
2022/03/25 11:16:55;;;;;;;;;;;;;;;10.30;61.36;101288.72;5076223;28;19974;-64
2022/03/25 11:19:40;;;;;;;;;;;;;;;10.30;61.44;101292.22;5075621;28;19970;-65
2022/03/25 11:22:24;;;;;;;;;;;;;;;10.31;61.06;101296.59;5075226;28;19927;-64
2022/03/25 11:25:10;;;;;;;;;;;;;;;10.32;61.08;101293.16;5090024;28;19950;-64
2022/03/25 11:28:03;;;;;;;;;;;;;;;10.33;61.43;101294.03;5074721;28;19927;-64
2022/03/25 11:31:16;;;;;;;;;;;;;;;10.35;61.41;101282.03;5075870;28;19928;-64
2022/03/25 11:34:09;;;;;;;;;;;;;;;10.35;61.49;101277.72;5070504;28;19927;-64
2022/03/25 11:37:29;;;;;;;;;;;;;;;10.38;61.44;101276.06;5074897;28;20098;-64
2022/03/25 11:40:13;;;;;;;;;;;;;;;10.38;60.69;101278.66;5014047;28;20072;-64
2022/03/25 11:42:59;;;;;;;;;;;;;;;10.37;61.44;101277.78;5075835;28;19932;-64
2022/03/25 11:45:44;;;;;;;;;;;;;;;10.37;61.23;101270.00;5074789;28;19969;-64
2022/03/25 11:48:28;;;;;;;;;;;;;;;10.40;61.43;101264.06;5075031;28;19929;-64
2022/03/25 11:51:26;;;;;;;;;;;;;;;10.40;61.43;101264.06;5074538;28;20342;-64
2022/03/25 11:54:33;;;;;;;;;;;;;;;10.40;61.04;101262.38;5074476;28;19928;-64
2022/03/25 11:57:28;;;;;;;;;;;;;;;10.41;61.03;101260.66;5075108;28;19927;-64
2022/03/25 12:00:22;;;;;;;;;;;;;;;10.42;61.07;101258.16;5088917;28;19975;-64
2022/03/25 12:03:07;;;;;;;;;;;;;;;10.44;61.36;101255.59;5074274;28;20358;-64
2022/03/25 12:05:58;;;;;;;;;;;;;;;10.45;61.12;101252.19;5073913;28;19969;-64
2022/03/25 12:08:54;;;;;;;;;;;;;;;10.47;61.06;101251.38;5074103;28;19927;-64
2022/03/25 12:11:50;;;;;;;;;;;;;;;10.45;61.00;101245.25;5075514;28;19927;-64
2022/03/25 12:14:36;;;;;;;;;;;;;;;10.49;61.01;101252.34;5075218;28;19927;-64
2022/03/25 12:17:24;;;;;;;;;;;;;;;10.50;60.95;101248.06;5075304;28;19943;-64
2022/03/25 12:20:15;;;;;;;;;;;;;;;10.49;61.02;101246.28;5088014;28;19926;-64
2022/03/25 12:23:07;;;;;;;;;;;;;;;10.48;61.28;101242.78;5074289;28;19935;-64
2022/03/25 12:25:51;;;;;;;;;;;;;;;10.48;61.28;101240.19;5074110;28;19927;-64
2022/03/25 12:28:35;;;;;;;;;;;;;;;10.48;61.04;101231.56;5088034;28;19946;-64
2022/03/25 12:31:20;;;;;;;;;;;;;;;10.55;61.00;101230.94;5075080;28;20029;-64
2022/03/25 12:34:05;;;;;;;;;;;;;;;10.53;60.92;101231.72;5074224;28;19928;-64
2022/03/25 12:36:52;;;;;;;;;;;;;;;10.57;60.80;101226.69;5073778;28;19985;-64
2022/03/25 12:39:36;;;;;;;;;;;;;;;10.56;61.23;101222.31;5074534;28;19930;-65
2022/03/25 12:42:20;;;;;;;;;;;;;;;10.54;61.05;101228.28;5074070;28;19928;-64
2022/03/25 12:45:05;;;;;;;;;;;;;;;10.52;60.77;101225.63;5074406;28;20306;-64
2022/03/25 12:47:49;;;;;;;;;;;;;;;10.52;61.18;101225.63;5073532;28;19973;-64
2022/03/25 12:50:33;;;;;;;;;;;;;;;10.55;60.76;101217.09;5074042;28;19928;-64
2022/03/25 12:53:21;;;;;;;;;;;;;;;10.57;60.66;101205.94;5074087;28;19932;-64
2022/03/25 12:56:11;;;;;;;;;;;;;;;10.57;61.05;101208.53;5073843;28;19928;-64
2022/03/25 12:58:57;;;;;;;;;;;;;;;10.59;61.21;101206.88;5074539;28;20023;-64
2022/03/25 13:01:44;;;;;;;;;;;;;;;10.59;61.11;101209.47;5074475;28;19947;-65
2022/03/25 13:04:32;;;;;;;;;;;;;;;10.63;60.44;101202.69;5073679;28;19991;-64
2022/03/25 13:07:16;;;;;;;;;;;;;;;10.61;61.15;101204.34;5073220;28;19927;-64
2022/03/25 13:10:00;;;;;;;;;;;;;;;10.57;60.88;101195.56;5073883;28;19943;-64
2022/03/25 13:12:45;;;;;;;;;;;;;;;10.57;60.74;101198.16;5074243;28;20015;-64
2022/03/25 13:15:30;;;;;;;;;;;;;;;10.61;60.96;101197.44;5074275;28;20004;-64
2022/03/25 13:18:15;;;;;;;;;;;;;;;10.59;60.68;101193.06;5073242;28;19970;-64
2022/03/25 13:20:59;;;;;;;;;;;;;;;10.60;60.84;101195.69;5074413;28;20291;-64
2022/03/25 13:23:43;;;;;;;;;;;;;;;10.60;60.86;101190.50;5074031;28;19927;-64
2022/03/25 13:26:28;;;;;;;;;;;;;;;10.63;60.40;101187.13;5072628;28;20307;-64
2022/03/25 13:29:14;;;;;;;;;;;;;;;10.66;60.38;101190.72;5071870;28;21399;-64
2022/03/25 13:31:58;;;;;;;;;;;;;;;10.67;60.77;101191.59;5073004;28;19927;-64
2022/03/25 13:34:42;;;;;;;;;;;;;;;10.66;60.60;101193.31;5074074;28;19928;-64
2022/03/25 13:37:26;;;;;;;;;;;;;;;10.67;60.57;101181.22;5073793;28;19927;-64
2022/03/25 13:40:45;;;;;;;;;;;;;;;10.66;60.86;101182.94;5073880;28;19966;-64
2022/03/25 13:43:37;;;;;;;;;;;;;;;10.66;60.74;101179.44;5011886;28;20019;-64
2022/03/25 13:46:25;;;;;;;;;;;;;;;10.68;60.96;101179.50;5073994;28;19927;-65
2022/03/25 13:49:13;;;;;;;;;;;;;;;10.70;60.36;101175.25;5073592;28;19928;-64
2022/03/25 13:52:05;;;;;;;;;;;;;;;10.70;60.27;101170.06;5072990;28;20036;-64
2022/03/25 13:54:49;;;;;;;;;;;;;;;10.72;60.81;101177.09;5073055;28;19944;-64
2022/03/25 13:57:33;;;;;;;;;;;;;;;10.73;60.38;101164.97;5073693;28;20041;-64
2022/03/25 14:00:17;;;;;;;;;;;;;;;10.71;60.54;101177.00;5073518;28;20041;-64
2022/03/25 14:03:00;;;;;;;;;;;;;;;10.69;60.66;101161.41;5073591;28;20023;-64
2022/03/25 14:05:44;;;;;;;;;;;;;;;10.72;60.49;101153.75;5073655;28;20485;-65
2022/03/25 14:08:34;;;;;;;;;;;;;;;10.73;60.46;101157.19;5072644;28;20386;-64
2022/03/25 14:11:30;;;;;;;;;;;;;;;10.76;60.68;101149.53;5072852;28;19973;-64
2022/03/25 14:14:24;;;;;;;;;;;;;;;10.79;60.22;101150.50;5072598;28;19943;-65
2022/03/25 14:17:09;;;;;;;;;;;;;;;10.78;60.23;101151.34;5073502;28;19927;-64
2022/03/25 14:20:02;;;;;;;;;;;;;;;10.79;60.52;101153.09;5075321;28;19990;-64